Time;durP1;ratioP1;P1;durP2;ratioP2;P2;SDS_P1;SDS_P2;PMS_P1;PMS_P2;Temp;Humidity;BMP_temperature;BMP_pressure;BME280_temperature;BME280_humidity;BME280_pressure;Samples;Min_cycle;Max_cycle;Signal;HPM_P1;HPM_P2
2023/09/20 00:00:36;;;;;;;8.85;4.22;;;16.40;99.90;;;;;;5033512;28;20049;-76
2023/09/20 00:03:02;;;;;;;11.20;4.88;;;16.30;99.90;;;;;;5049884;28;20053;-76
2023/09/20 00:05:28;;;;;;;11.25;4.88;;;16.40;99.90;;;;;;5034070;28;20045;-76
2023/09/20 00:07:57;;;;;;;11.27;5.00;;;16.30;99.90;;;;;;5072806;28;20049;-76
2023/09/20 00:10:25;;;;;;;10.93;4.20;;;16.30;99.90;;;;;;5034059;28;20160;-76
2023/09/20 00:12:51;;;;;;;10.23;4.35;;;16.30;99.90;;;;;;5048155;28;20098;-76
2023/09/20 00:15:17;;;;;;;11.65;4.95;;;16.30;99.90;;;;;;5035907;28;20045;-77
2023/09/20 00:17:43;;;;;;;9.00;4.38;;;16.30;99.90;;;;;;5035455;28;20098;-76
2023/09/20 00:20:12;;;;;;;10.43;4.47;;;16.30;99.90;;;;;;5048009;28;20374;-76
2023/09/20 00:22:43;;;;;;;12.15;4.82;;;16.30;99.90;;;;;;5047284;28;20045;-76
2023/09/20 00:25:14;;;;;;;12.93;4.38;;;16.30;99.90;;;;;;5040102;28;20098;-76
2023/09/20 00:27:45;;;;;;;10.80;4.40;;;16.30;99.90;;;;;;5049864;28;20413;-76
2023/09/20 00:30:18;;;;;;;10.55;3.95;;;16.30;99.90;;;;;;5043490;28;20547;-76
2023/09/20 00:32:44;;;;;;;9.35;4.28;;;16.30;99.90;;;;;;5045635;28;20443;-77
2023/09/20 00:35:13;;;;;;;14.02;4.50;;;16.40;99.90;;;;;;5045152;28;20049;-76
2023/09/20 00:37:40;;;;;;;11.40;4.65;;;16.30;99.90;;;;;;5036731;28;20114;-76
2023/09/20 00:40:20;;;;;;;12.10;3.92;;;16.30;99.90;;;;;;5037440;28;20469;-76
2023/09/20 00:42:51;;;;;;;12.43;4.53;;;16.40;99.90;;;;;;5049047;28;20053;-76
2023/09/20 00:45:19;;;;;;;10.10;4.20;;;16.40;99.90;;;;;;5073550;28;20472;-76
2023/09/20 00:47:55;;;;;;;9.38;3.67;;;16.40;99.90;;;;;;5040168;28;20253;-76
2023/09/20 00:50:21;;;;;;;12.45;4.70;;;16.40;99.90;;;;;;5034184;28;20065;-76
2023/09/20 00:52:51;;;;;;;10.20;3.92;;;16.40;99.90;;;;;;5047763;28;20044;-76
2023/09/20 00:55:24;;;;;;;12.05;4.13;;;16.40;99.90;;;;;;5051430;28;20052;-77
2023/09/20 00:57:53;;;;;;;11.02;3.75;;;16.40;99.90;;;;;;5049420;28;20139;-76
2023/09/20 01:00:32;;;;;;;14.30;5.05;;;16.40;99.90;;;;;;5039243;28;20053;-75
2023/09/20 01:02:59;;;;;;;12.43;3.55;;;16.50;99.90;;;;;;5053290;28;20077;-76
2023/09/20 01:05:28;;;;;;;12.88;4.00;;;16.50;99.90;;;;;;5067918;28;20046;-77
2023/09/20 01:07:56;;;;;;;11.73;3.72;;;16.40;99.90;;;;;;5007065;28;20048;-76
2023/09/20 01:10:25;;;;;;;14.82;4.32;;;16.50;99.90;;;;;;5067833;28;20386;-77
2023/09/20 01:12:55;;;;;;;11.30;4.20;;;16.50;99.90;;;;;;5051154;28;20049;-76
2023/09/20 01:15:21;;;;;;;10.55;3.60;;;16.50;99.90;;;;;;5070993;28;20044;-76
2023/09/20 01:17:49;;;;;;;11.63;4.10;;;16.40;99.90;;;;;;5032548;28;20120;-76
2023/09/20 01:20:19;;;;;;;9.85;3.90;;;16.50;99.90;;;;;;5049305;28;20053;-76
2023/09/20 01:22:50;;;;;;;11.98;4.18;;;16.50;99.90;;;;;;5047981;28;20064;-76
2023/09/20 01:25:48;;;;;;;12.23;4.07;;;16.50;99.90;;;;;;5032825;28;20044;-77
2023/09/20 01:28:15;;;;;;;12.40;3.95;;;16.40;99.90;;;;;;5064260;28;20434;-76
2023/09/20 01:30:49;;;;;;;14.52;3.80;;;16.40;99.90;;;;;;5043766;28;20056;-76
2023/09/20 01:33:17;;;;;;;15.75;4.05;;;16.50;99.90;;;;;;5048559;28;20415;-76
2023/09/20 01:35:47;;;;;;;9.45;3.65;;;16.50;99.90;;;;;;5034034;28;20147;-76
2023/09/20 01:38:13;;;;;;;12.43;3.47;;;16.50;99.90;;;;;;5018821;28;20097;-76
2023/09/20 01:40:41;;;;;;;9.95;3.05;;;16.50;99.90;;;;;;5045646;28;20082;-77
2023/09/20 01:43:07;;;;;;;15.95;3.72;;;16.50;99.90;;;;;;5043661;28;20076;-76
2023/09/20 01:45:37;;;;;;;19.23;4.35;;;16.50;99.90;;;;;;5041549;28;20080;-76
2023/09/20 01:48:10;;;;;;;10.80;3.55;;;16.50;99.90;;;;;;5045270;28;20083;-76
2023/09/20 01:50:41;;;;;;;11.23;3.60;;;16.60;99.90;;;;;;5044344;28;20102;-76
2023/09/20 01:53:12;;;;;;;10.88;3.17;;;16.50;99.90;;;;;;5037976;28;20056;-76
2023/09/20 01:55:42;;;;;;;10.13;3.67;;;16.50;99.90;;;;;;5035831;28;20053;-76
2023/09/20 01:58:12;;;;;;;9.85;3.63;;;16.60;99.90;;;;;;5040790;28;20046;-76
2023/09/20 02:00:40;;;;;;;11.55;3.28;;;16.60;99.90;;;;;;5041845;28;20046;-76
2023/09/20 02:03:16;;;;;;;10.00;3.22;;;16.60;99.90;;;;;;5033901;28;20045;-76
2023/09/20 02:05:44;;;;;;;14.07;3.67;;;16.60;99.90;;;;;;5048358;28;20053;-76
2023/09/20 02:08:10;;;;;;;9.98;3.30;;;16.60;99.90;;;;;;5032288;28;20110;-76
2023/09/20 02:10:38;;;;;;;10.30;3.53;;;16.60;99.90;;;;;;5073888;28;20128;-76
2023/09/20 02:13:04;;;;;;;8.90;3.30;;;16.60;99.90;;;;;;5032102;28;20065;-75
2023/09/20 02:15:34;;;;;;;8.60;2.95;;;16.60;99.90;;;;;;5042239;28;20584;-76
2023/09/20 02:18:05;;;;;;;11.38;3.20;;;16.60;99.90;;;;;;5042925;28;20176;-75
2023/09/20 02:20:36;;;;;;;14.05;3.85;;;16.70;99.90;;;;;;5045862;28;20112;-76
2023/09/20 02:23:12;;;;;;;10.13;3.00;;;16.70;99.90;;;;;;5051371;28;20060;-76
2023/09/20 02:25:41;;;;;;;8.75;3.45;;;16.70;99.90;;;;;;5017000;28;20053;-76
2023/09/20 02:28:08;;;;;;;15.77;3.50;;;16.70;99.90;;;;;;5048495;28;20049;-76
2023/09/20 02:30:37;;;;;;;8.00;3.25;;;16.70;99.90;;;;;;5051728;28;20570;-76
2023/09/20 02:33:05;;;;;;;9.18;2.80;;;16.70;99.90;;;;;;5050265;28;20511;-76
2023/09/20 02:35:32;;;;;;;8.43;2.97;;;16.70;99.90;;;;;;5050622;28;20071;-76
2023/09/20 02:37:59;;;;;;;8.88;2.88;;;16.80;99.90;;;;;;5040945;28;20047;-76
2023/09/20 02:40:29;;;;;;;12.25;3.33;;;16.80;99.90;;;;;;5033056;28;20057;-76
2023/09/20 02:42:58;;;;;;;8.95;2.97;;;16.80;99.90;;;;;;5035066;28;20140;-75
2023/09/20 02:45:25;;;;;;;7.50;2.92;;;16.80;99.90;;;;;;5037494;28;20048;-76
2023/09/20 02:47:52;;;;;;;8.63;3.13;;;16.80;99.90;;;;;;5045240;28;20033;-76
2023/09/20 02:50:19;;;;;;;9.43;3.10;;;16.80;99.90;;;;;;5063604;28;20491;-75
2023/09/20 02:52:47;;;;;;;11.48;2.95;;;16.80;99.90;;;;;;5015564;28;20376;-76
2023/09/20 02:55:15;;;;;;;15.65;2.65;;;16.80;99.90;;;;;;5029074;28;20150;-76
2023/09/20 02:57:42;;;;;;;12.23;2.88;;;16.80;99.90;;;;;;5031341;28;20057;-76
2023/09/20 03:00:16;;;;;;;7.95;2.90;;;16.80;99.90;;;;;;5048761;28;20408;-76
2023/09/20 03:02:52;;;;;;;12.05;3.15;;;16.80;99.90;;;;;;5034087;28;20045;-76
2023/09/20 03:05:28;;;;;;;11.30;3.03;;;16.80;99.90;;;;;;5020336;28;20392;-76
2023/09/20 03:07:54;;;;;;;14.20;3.80;;;16.80;99.90;;;;;;5052206;28;20045;-76
2023/09/20 03:10:21;;;;;;;9.07;2.80;;;16.80;99.90;;;;;;5034851;28;20049;-76
2023/09/20 03:12:48;;;;;;;11.13;3.42;;;16.80;99.90;;;;;;5035845;28;20085;-76
2023/09/20 03:15:21;;;;;;;9.30;3.17;;;16.90;99.90;;;;;;5044641;28;20053;-76
2023/09/20 03:17:48;;;;;;;8.48;2.92;;;16.90;99.90;;;;;;5036057;28;20436;-76
2023/09/20 03:20:23;;;;;;;10.60;2.92;;;16.90;99.90;;;;;;5030329;28;20088;-76
2023/09/20 03:22:57;;;;;;;9.00;3.00;;;16.90;99.90;;;;;;5035360;28;20767;-76
2023/09/20 03:25:28;;;;;;;11.07;3.13;;;16.90;99.90;;;;;;5042848;28;20053;-75
2023/09/20 03:27:55;;;;;;;6.95;2.97;;;16.80;99.90;;;;;;5050808;28;20060;-76
2023/09/20 03:30:27;;;;;;;11.55;3.03;;;16.90;99.90;;;;;;5064559;28;20049;-76
2023/09/20 03:32:55;;;;;;;11.20;3.10;;;16.80;99.90;;;;;;5026222;28;20103;-76
2023/09/20 03:35:22;;;;;;;11.95;3.03;;;16.80;99.90;;;;;;5040889;28;20107;-76
2023/09/20 03:37:47;;;;;;;6.40;3.00;;;16.80;99.90;;;;;;5030548;28;20057;-76
2023/09/20 03:40:18;;;;;;;9.82;3.03;;;16.80;99.90;;;;;;5042883;28;20045;-76
2023/09/20 03:42:46;;;;;;;10.25;3.65;;;16.80;99.90;;;;;;5034992;28;20053;-76
2023/09/20 03:45:14;;;;;;;10.98;3.53;;;16.80;99.90;;;;;;5040738;28;20045;-75
2023/09/20 03:47:41;;;;;;;9.45;3.10;;;16.80;99.90;;;;;;5039483;28;20051;-76
2023/09/20 03:50:09;;;;;;;7.68;2.65;;;16.80;99.90;;;;;;5047235;28;20045;-75
2023/09/20 03:52:36;;;;;;;10.40;3.45;;;16.80;99.90;;;;;;5070266;28;20559;-76
2023/09/20 03:55:03;;;;;;;13.93;3.10;;;16.80;99.90;;;;;;5048021;28;20087;-75
2023/09/20 03:57:29;;;;;;;16.10;4.05;;;16.80;99.90;;;;;;5033894;28;20056;-76
2023/09/20 03:59:59;;;;;;;8.85;3.03;;;16.80;99.90;;;;;;5039053;28;20491;-76
2023/09/20 04:02:25;;;;;;;8.40;3.00;;;16.80;99.90;;;;;;5023065;28;20484;-76
2023/09/20 04:04:53;;;;;;;13.63;3.47;;;16.80;99.90;;;;;;5067249;28;20062;-76
2023/09/20 04:07:28;;;;;;;10.80;3.40;;;16.90;99.90;;;;;;5049288;28;20122;-76
2023/09/20 04:09:53;;;;;;;8.57;3.47;;;16.90;99.90;;;;;;5053935;28;20381;-77
2023/09/20 04:12:22;;;;;;;11.25;3.53;;;16.90;99.90;;;;;;5051587;28;20063;-75
2023/09/20 04:14:51;;;;;;;8.82;3.63;;;16.90;99.90;;;;;;5026475;28;20049;-75
2023/09/20 04:17:17;;;;;;;15.82;3.75;;;16.80;99.90;;;;;;5030458;28;20053;-76
2023/09/20 04:19:42;;;;;;;15.70;3.60;;;16.90;99.90;;;;;;5050651;28;20045;-76
2023/09/20 04:22:10;;;;;;;10.35;2.92;;;16.80;99.90;;;;;;5041491;28;20136;-76
2023/09/20 04:24:38;;;;;;;12.35;3.38;;;16.80;99.90;;;;;;5046785;28;20053;-75
2023/09/20 04:27:04;;;;;;;10.68;2.97;;;16.80;99.90;;;;;;5054049;28;20049;-76
2023/09/20 04:29:31;;;;;;;7.07;2.70;;;16.80;99.90;;;;;;5044719;28;20045;-76
2023/09/20 04:31:58;;;;;;;10.93;3.20;;;16.80;99.90;;;;;;5036470;28;20053;-75
2023/09/20 04:34:24;;;;;;;17.58;3.55;;;16.70;99.90;;;;;;5041774;28;20049;-76
2023/09/20 04:36:52;;;;;;;11.93;3.22;;;16.70;99.90;;;;;;5046128;28;20095;-76
2023/09/20 04:39:21;;;;;;;10.95;3.03;;;16.60;99.90;;;;;;5042517;28;20049;-76
2023/09/20 04:41:53;;;;;;;10.98;2.72;;;16.60;99.90;;;;;;5041155;28;20044;-77
2023/09/20 04:44:19;;;;;;;9.05;3.17;;;16.60;99.90;;;;;;5026677;28;20049;-76
2023/09/20 04:46:47;;;;;;;9.02;2.83;;;16.50;99.90;;;;;;5027797;28;20080;-77
2023/09/20 04:49:15;;;;;;;7.32;3.28;;;16.50;99.90;;;;;;5048380;28;20124;-76
2023/09/20 04:51:42;;;;;;;9.88;3.33;;;16.40;99.90;;;;;;5038282;28;20409;-77
2023/09/20 04:54:09;;;;;;;11.15;3.20;;;16.40;99.90;;;;;;5048443;28;20481;-77
2023/09/20 04:56:36;;;;;;;8.75;3.10;;;16.40;99.90;;;;;;5035199;28;20093;-74
2023/09/20 04:59:08;;;;;;;16.15;4.55;;;16.40;99.90;;;;;;5035508;28;20053;-74
2023/09/20 05:01:33;;;;;;;11.75;3.65;;;16.30;99.90;;;;;;5049206;28;20044;-76
2023/09/20 05:03:59;;;;;;;10.95;3.22;;;16.30;99.90;;;;;;5042112;28;20118;-74
2023/09/20 05:06:26;;;;;;;11.88;3.28;;;16.30;99.90;;;;;;5048876;28;20408;-75
2023/09/20 05:08:54;;;;;;;15.80;3.40;;;16.30;99.90;;;;;;5050065;28;20051;-74
2023/09/20 05:11:20;;;;;;;11.82;3.00;;;16.30;99.90;;;;;;5049334;28;20049;-74
2023/09/20 05:13:46;;;;;;;9.23;3.40;;;16.20;99.90;;;;;;5049157;28;20037;-74
2023/09/20 05:16:12;;;;;;;8.98;3.60;;;16.20;99.90;;;;;;5049129;28;20041;-73
2023/09/20 05:18:37;;;;;;;10.85;3.55;;;16.20;99.90;;;;;;5048617;28;20084;-74
2023/09/20 05:21:03;;;;;;;12.40;3.05;;;16.20;99.90;;;;;;5037547;28;20060;-74
2023/09/20 05:23:29;;;;;;;11.65;3.20;;;16.20;99.90;;;;;;5049324;28;20444;-74
2023/09/20 05:25:58;;;;;;;10.18;2.55;;;16.20;99.90;;;;;;5053958;28;20059;-75
2023/09/20 05:28:25;;;;;;;11.70;3.20;;;16.20;99.90;;;;;;5048546;28;20049;-73
2023/09/20 05:30:53;;;;;;;10.48;2.85;;;16.20;99.90;;;;;;5068444;28;20045;-74
2023/09/20 05:33:19;;;;;;;9.13;3.10;;;16.20;99.90;;;;;;5069602;28;20750;-74
2023/09/20 05:35:46;;;;;;;11.27;3.00;;;16.20;99.90;;;;;;5023514;28;20093;-77
2023/09/20 05:38:18;;;;;;;8.18;3.03;;;16.20;99.90;;;;;;5047388;28;20057;-76
2023/09/20 05:40:43;;;;;;;7.78;2.88;;;16.20;99.90;;;;;;5038113;28;20056;-75
2023/09/20 05:43:09;;;;;;;12.25;3.63;;;16.20;99.90;;;;;;5035265;28;20049;-76
2023/09/20 05:45:35;;;;;;;10.20;3.17;;;16.20;99.90;;;;;;5077090;28;20153;-77
2023/09/20 05:48:01;;;;;;;14.15;3.40;;;16.20;99.90;;;;;;5046749;28;20033;-78
2023/09/20 05:50:36;;;;;;;10.63;3.45;;;16.30;99.90;;;;;;5053780;28;20381;-78
2023/09/20 05:53:06;;;;;;;10.88;3.22;;;16.30;99.90;;;;;;5052787;28;20496;-79
2023/09/20 05:55:36;;;;;;;9.35;3.30;;;16.30;99.90;;;;;;5030826;28;20041;-79
2023/09/20 05:58:02;;;;;;;10.57;3.10;;;16.30;99.90;;;;;;5048467;28;20532;-80
2023/09/20 06:00:29;;;;;;;8.50;2.63;;;16.30;99.90;;;;;;5068886;28;20080;-82
2023/09/20 06:02:59;;;;;;;6.80;2.65;;;16.30;99.90;;;;;;5049862;28;20052;-79
2023/09/20 06:05:25;;;;;;;7.75;3.35;;;16.30;99.90;;;;;;5051892;28;20162;-82
2023/09/20 06:07:53;;;;;;;9.80;2.92;;;16.30;99.90;;;;;;5066656;28;20045;-84
2023/09/20 06:10:20;;;;;;;8.88;2.60;;;16.30;99.90;;;;;;5039416;28;20037;-82
2023/09/20 06:12:46;;;;;;;6.93;2.60;;;16.30;99.90;;;;;;5035326;28;20223;-80
2023/09/20 06:15:15;;;;;;;12.25;3.47;;;16.30;99.90;;;;;;5039268;28;20381;-76
2023/09/20 06:17:44;;;;;;;9.50;2.88;;;16.30;99.90;;;;;;5043541;28;20137;-77
2023/09/20 06:20:12;;;;;;;7.63;2.50;;;16.30;99.90;;;;;;5030575;28;20424;-78
2023/09/20 06:22:38;;;;;;;11.55;2.65;;;16.30;99.90;;;;;;5038871;28;20060;-77
2023/09/20 06:25:07;;;;;;;7.65;2.83;;;16.30;99.90;;;;;;5049879;28;20049;-75
2023/09/20 06:27:34;;;;;;;10.35;2.63;;;16.30;99.90;;;;;;5049790;28;20082;-74
2023/09/20 06:30:05;;;;;;;6.65;2.97;;;16.20;99.90;;;;;;5050694;28;20049;-75
2023/09/20 06:32:33;;;;;;;7.65;2.58;;;16.20;99.90;;;;;;5048506;28;20064;-74
2023/09/20 06:35:04;;;;;;;8.32;2.80;;;16.20;99.90;;;;;;5042213;28;20481;-75
2023/09/20 06:37:30;;;;;;;9.85;2.88;;;16.20;99.90;;;;;;5062781;28;20070;-74
2023/09/20 06:39:57;;;;;;;9.88;2.78;;;16.20;99.90;;;;;;5068378;28;20056;-75
2023/09/20 06:42:29;;;;;;;8.20;3.00;;;16.20;99.90;;;;;;5031189;28;20073;-75
2023/09/20 06:44:55;;;;;;;9.45;2.53;;;16.20;99.90;;;;;;5037888;28;20037;-76
2023/09/20 06:47:25;;;;;;;8.15;2.65;;;16.20;99.90;;;;;;5043554;28;20451;-75
2023/09/20 06:49:51;;;;;;;9.90;2.47;;;16.20;99.90;;;;;;5072764;28;20127;-75
2023/09/20 06:52:18;;;;;;;8.43;3.15;;;16.20;99.90;;;;;;5045076;28;20067;-75
2023/09/20 06:54:45;;;;;;;7.03;2.30;;;16.30;99.90;;;;;;5031228;28;20045;-75
2023/09/20 06:57:17;;;;;;;8.85;2.53;;;16.30;99.90;;;;;;5040762;28;20033;-75
2023/09/20 06:59:45;;;;;;;10.45;3.17;;;16.30;99.90;;;;;;5050666;28;20111;-75
2023/09/20 07:02:12;;;;;;;6.90;2.47;;;16.30;99.90;;;;;;5049251;28;20045;-74
2023/09/20 07:04:39;;;;;;;9.75;2.80;;;16.40;99.90;;;;;;5049764;28;20052;-75
2023/09/20 07:07:05;;;;;;;9.43;3.25;;;16.40;99.90;;;;;;5047457;28;20508;-75
2023/09/20 07:09:31;;;;;;;9.82;3.08;;;16.40;99.90;;;;;;5040105;28;20052;-74
2023/09/20 07:12:01;;;;;;;6.72;2.55;;;16.50;99.90;;;;;;5045052;28;20049;-75
2023/09/20 07:14:31;;;;;;;7.70;3.00;;;16.50;99.90;;;;;;5037058;28;20128;-75
2023/09/20 07:16:57;;;;;;;12.57;2.80;;;16.50;99.90;;;;;;5037694;28;20625;-74
2023/09/20 07:19:26;;;;;;;8.50;2.97;;;16.50;99.90;;;;;;5035010;28;20054;-74
2023/09/20 07:21:52;;;;;;;12.52;3.08;;;16.50;99.90;;;;;;5053799;28;20045;-75
2023/09/20 07:24:20;;;;;;;6.95;2.88;;;16.50;99.90;;;;;;5054273;28;20052;-74
2023/09/20 07:26:45;;;;;;;12.38;3.03;;;16.50;99.90;;;;;;5050292;28;20059;-75
2023/09/20 07:29:12;;;;;;;7.25;2.92;;;16.50;99.90;;;;;;5047190;28;20396;-76
2023/09/20 07:31:38;;;;;;;7.85;2.83;;;16.50;99.90;;;;;;5083778;28;20045;-80
2023/09/20 07:34:04;;;;;;;8.43;2.92;;;16.50;99.90;;;;;;5053324;28;20053;-80
2023/09/20 07:36:40;;;;;;;8.13;2.92;;;16.50;99.90;;;;;;5036527;28;20061;-78
2023/09/20 07:39:12;;;;;;;9.07;3.05;;;16.50;99.90;;;;;;5035126;28;20057;-78
2023/09/20 07:41:44;;;;;;;7.85;2.78;;;16.60;99.90;;;;;;5068505;28;20428;-79
2023/09/20 07:44:11;;;;;;;8.43;3.00;;;16.60;99.90;;;;;;5050093;28;20045;-79
2023/09/20 07:46:38;;;;;;;9.35;2.92;;;16.70;99.90;;;;;;5054099;28;20061;-77
2023/09/20 07:49:09;;;;;;;8.65;2.83;;;16.80;99.90;;;;;;5035955;28;20459;-76
2023/09/20 07:51:41;;;;;;;7.72;2.25;;;16.80;99.90;;;;;;5047918;28;20412;-76
2023/09/20 07:54:10;;;;;;;12.40;2.78;;;16.90;99.90;;;;;;5084926;28;20127;-76
2023/09/20 07:56:37;;;;;;;8.32;3.15;;;17.00;99.90;;;;;;5054062;28;20048;-76
2023/09/20 07:59:04;;;;;;;8.98;3.05;;;17.00;99.90;;;;;;5046424;28;20058;-77
2023/09/20 08:01:30;;;;;;;9.43;2.60;;;17.00;99.90;;;;;;5066966;28;20529;-77
2023/09/20 08:03:59;;;;;;;7.70;2.53;;;17.00;99.90;;;;;;5067261;28;20095;-76
2023/09/20 08:06:28;;;;;;;8.90;3.03;;;17.00;99.90;;;;;;5034097;28;20564;-77
2023/09/20 08:08:57;;;;;;;9.23;2.50;;;17.00;99.90;;;;;;5072906;28;20044;-76
2023/09/20 08:11:22;;;;;;;8.48;2.78;;;17.00;99.90;;;;;;5053717;28;20418;-76
2023/09/20 08:14:01;;;;;;;11.57;2.97;;;17.00;99.90;;;;;;5053421;28;20123;-76
2023/09/20 08:16:31;;;;;;;7.78;3.35;;;17.00;99.90;;;;;;5053358;28;20045;-76
2023/09/20 08:19:04;;;;;;;10.15;3.47;;;17.00;99.90;;;;;;5036692;28;20132;-76
2023/09/20 08:21:32;;;;;;;10.90;3.28;;;17.00;99.90;;;;;;5048338;28;20091;-76
2023/09/20 09:00:22;;;;;;;8.82;3.00;;;17.60;99.90;;;;;;5051462;28;20040;-76
2023/09/20 09:02:58;;;;;;;14.93;3.50;;;17.60;99.90;;;;;;5044679;28;20037;-76
2023/09/20 09:05:28;;;;;;;7.10;2.90;;;17.60;99.90;;;;;;5088329;28;20496;-76
2023/09/20 09:07:56;;;;;;;9.80;3.10;;;17.70;99.90;;;;;;5032747;28;20057;-77
2023/09/20 09:10:22;;;;;;;7.30;2.72;;;17.70;99.90;;;;;;5052094;28;20128;-76
2023/09/20 09:12:48;;;;;;;9.70;3.00;;;17.70;99.90;;;;;;5051527;28;20124;-76
2023/09/20 09:15:16;;;;;;;8.32;3.15;;;17.70;99.90;;;;;;5052344;28;20041;-76
2023/09/20 09:17:43;;;;;;;9.32;3.60;;;17.70;99.90;;;;;;5052405;28;20087;-76
2023/09/20 09:20:11;;;;;;;8.15;2.58;;;17.70;99.90;;;;;;5037300;28;20504;-76
2023/09/20 09:22:38;;;;;;;5.95;2.90;;;17.80;99.90;;;;;;5075804;28;20048;-76
2023/09/20 09:25:12;;;;;;;6.50;2.80;;;17.80;99.90;;;;;;5078979;28;20038;-76
2023/09/20 09:27:39;;;;;;;9.13;2.90;;;17.80;99.90;;;;;;5033933;28;20049;-76
2023/09/20 09:30:12;;;;;;;10.40;2.83;;;17.80;99.90;;;;;;5045447;28;20044;-76
2023/09/20 09:32:39;;;;;;;7.47;2.90;;;17.90;99.90;;;;;;5050650;28;20061;-76
2023/09/20 09:35:06;;;;;;;6.47;3.00;;;17.90;99.90;;;;;;5051036;28;20106;-76
2023/09/20 09:37:33;;;;;;;7.78;2.65;;;17.90;99.90;;;;;;5051567;28;20041;-76
2023/09/20 09:40:00;;;;;;;9.73;2.97;;;17.90;99.90;;;;;;5047758;28;20485;-76
2023/09/20 09:42:28;;;;;;;8.82;3.05;;;18.00;99.90;;;;;;5032054;28;20054;-77
2023/09/20 09:44:55;;;;;;;9.38;2.90;;;18.00;99.90;;;;;;5065357;28;20057;-76
2023/09/20 09:47:22;;;;;;;8.77;2.95;;;18.10;99.90;;;;;;5043091;28;20091;-76
2023/09/20 09:49:50;;;;;;;5.85;2.50;;;18.10;99.90;;;;;;5051554;28;20076;-76
2023/09/20 09:52:26;;;;;;;5.82;2.78;;;18.20;99.90;;;;;;5048399;28;20492;-76
2023/09/20 09:54:52;;;;;;;9.20;3.13;;;18.20;99.90;;;;;;5036145;28;20487;-76
2023/09/20 09:57:18;;;;;;;7.18;2.60;;;18.30;99.90;;;;;;5015286;28;20049;-76
2023/09/20 09:59:48;;;;;;;4.82;2.60;;;18.30;99.90;;;;;;5025343;28;20412;-77
2023/09/20 10:02:18;;;;;;;7.70;2.35;;;18.40;99.90;;;;;;5050572;28;20040;-77
2023/09/20 10:04:47;;;;;;;6.75;2.70;;;18.50;99.90;;;;;;5048735;28;20045;-76
2023/09/20 10:07:16;;;;;;;10.82;2.53;;;18.50;99.90;;;;;;5046305;28;20044;-77
2023/09/20 10:09:46;;;;;;;7.53;3.00;;;18.60;99.90;;;;;;5039320;28;20046;-75
2023/09/20 10:12:12;;;;;;;7.20;2.40;;;18.60;99.90;;;;;;5031927;28;20045;-76
2023/09/20 10:14:38;;;;;;;5.95;2.65;;;18.70;99.90;;;;;;5031212;28;20053;-75
2023/09/20 10:17:08;;;;;;;11.70;2.85;;;18.70;99.90;;;;;;5081948;28;20045;-76
2023/09/20 10:19:38;;;;;;;9.15;2.03;;;18.70;99.90;;;;;;5032249;28;20485;-76
2023/09/20 10:22:09;;;;;;;6.82;2.38;;;18.70;99.90;;;;;;5047384;28;20400;-76
2023/09/20 10:24:54;;;;;;;5.60;1.83;;;18.70;99.90;;;;;;5040511;28;20049;-76
2023/09/20 10:27:21;;;;;;;5.95;2.28;;;18.60;99.90;;;;;;5046214;28;20471;-76
2023/09/20 10:30:10;;;;;;;6.53;2.30;;;18.70;99.90;;;;;;5048119;28;20060;-75
2023/09/20 10:32:47;;;;;;;6.82;2.03;;;18.70;99.90;;;;;;5035585;28;20105;-76
2023/09/20 10:35:29;;;;;;;6.28;2.28;;;18.70;99.90;;;;;;5039779;28;20128;-76
2023/09/20 10:38:23;;;;;;;7.80;2.80;;;18.60;99.90;;;;;;5042238;28;20075;-76
2023/09/20 10:40:51;;;;;;;6.30;2.10;;;18.60;99.90;;;;;;5037317;28;20156;-76
2023/09/20 10:43:25;;;;;;;7.55;2.45;;;18.70;99.90;;;;;;5035288;28;20045;-77
2023/09/20 10:45:55;;;;;;;6.90;2.33;;;18.70;99.90;;;;;;5049857;28;20051;-77
2023/09/20 10:48:26;;;;;;;8.57;2.20;;;18.70;99.90;;;;;;5051359;28;20504;-77
2023/09/20 10:50:58;;;;;;;5.45;2.05;;;18.70;99.90;;;;;;5082892;28;20119;-76
2023/09/20 10:53:47;;;;;;;9.05;2.10;;;18.70;99.90;;;;;;5043841;28;20048;-77
2023/09/20 10:56:54;;;;;;;7.13;1.92;;;18.70;99.90;;;;;;5044948;28;20084;-76
2023/09/20 10:59:27;;;;;;;10.18;2.05;;;18.70;99.90;;;;;;5013914;28;20041;-76
2023/09/20 11:01:59;;;;;;;5.53;1.85;;;18.70;99.90;;;;;;5039911;28;20106;-76
2023/09/20 11:04:28;;;;;;;5.07;1.33;;;18.70;99.90;;;;;;5051892;28;20105;-76
2023/09/20 11:06:59;;;;;;;6.30;2.00;;;18.70;99.90;;;;;;5050652;28;20049;-77
2023/09/20 11:09:38;;;;;;;5.55;1.70;;;18.70;99.90;;;;;;5051067;28;20048;-77
2023/09/20 11:12:09;;;;;;;3.92;1.67;;;18.70;99.90;;;;;;5013310;28;20131;-77
2023/09/20 11:14:42;;;;;;;6.15;2.00;;;18.70;99.90;;;;;;5040336;28;20049;-77
2023/09/20 11:17:12;;;;;;;8.13;2.47;;;18.70;99.90;;;;;;5037317;28;20120;-76
2023/09/20 11:19:39;;;;;;;9.70;1.90;;;18.70;99.90;;;;;;5050507;28;20465;-76
2023/09/20 11:22:05;;;;;;;4.93;1.45;;;18.70;99.90;;;;;;5051092;28;20044;-77
2023/09/20 11:24:32;;;;;;;6.30;1.88;;;18.70;99.90;;;;;;5050920;28;20056;-77
2023/09/20 11:26:57;;;;;;;10.02;2.90;;;18.70;99.90;;;;;;5040242;28;20053;-80
2023/09/20 11:29:24;;;;;;;7.75;1.75;;;18.70;99.90;;;;;;5039435;28;20041;-81
2023/09/20 11:31:55;;;;;;;3.92;1.80;;;18.70;99.90;;;;;;5076859;28;20091;-77
2023/09/20 11:34:20;;;;;;;4.63;1.85;;;18.70;99.90;;;;;;5050076;28;20061;-76
2023/09/20 11:36:48;;;;;;;7.50;2.22;;;18.70;99.90;;;;;;5051004;28;20124;-86
2023/09/20 11:39:22;;;;;;;7.13;1.70;;;18.80;99.90;;;;;;5036681;28;20045;-85
2023/09/20 11:41:48;;;;;;;5.30;1.60;;;18.80;99.90;;;;;;5037148;28;20052;-85
2023/09/20 11:44:18;;;;;;;3.55;1.70;;;18.90;99.90;;;;;;5052085;28;20041;-85
2023/09/20 11:46:52;;;;;;;6.55;1.90;;;18.90;99.90;;;;;;5070287;28;20064;-85
2023/09/20 11:49:20;;;;;;;6.13;2.17;;;19.00;99.90;;;;;;5042156;28;20358;-84
2023/09/20 11:51:45;;;;;;;5.13;1.73;;;19.10;99.90;;;;;;5038539;28;20420;-86
2023/09/20 11:54:13;;;;;;;4.68;1.70;;;19.10;99.90;;;;;;5047761;28;20052;-85
2023/09/20 11:56:47;;;;;;;6.57;1.90;;;19.20;99.90;;;;;;5038431;28;20068;-85
2023/09/20 11:59:14;;;;;;;5.70;1.73;;;19.20;99.90;;;;;;5057225;28;20527;-84
2023/09/20 12:01:44;;;;;;;6.95;1.70;;;19.20;99.90;;;;;;5050347;28;20048;-84
2023/09/20 12:04:09;;;;;;;4.65;1.45;;;19.30;99.90;;;;;;5033320;28;20164;-84
2023/09/20 12:06:35;;;;;;;6.57;2.17;;;19.40;99.90;;;;;;5047989;28;20083;-83
2023/09/20 12:09:05;;;;;;;6.10;1.80;;;19.40;99.90;;;;;;5050226;28;20045;-83
2023/09/20 12:11:31;;;;;;;6.60;1.70;;;19.50;99.90;;;;;;5057085;28;20484;-84
2023/09/20 12:13:57;;;;;;;7.20;2.50;;;19.50;99.90;;;;;;5057040;28;20045;-86
2023/09/20 12:16:23;;;;;;;5.55;1.95;;;19.60;99.90;;;;;;5039144;28;20063;-86
2023/09/20 12:18:58;;;;;;;5.38;1.92;;;19.70;99.90;;;;;;5036727;28;20049;-83
2023/09/20 12:21:25;;;;;;;5.10;2.30;;;19.80;99.90;;;;;;5035424;28;20569;-84
2023/09/20 12:23:51;;;;;;;5.65;2.17;;;20.00;99.90;;;;;;5067994;28;20390;-83
2023/09/20 12:26:17;;;;;;;6.68;2.00;;;20.10;99.90;;;;;;5069569;28;20084;-85
2023/09/20 12:28:44;;;;;;;7.13;2.38;;;20.20;99.90;;;;;;5041020;28;20120;-85
2023/09/20 12:31:10;;;;;;;7.93;2.53;;;20.20;99.90;;;;;;5045908;28;20053;-85
2023/09/20 12:33:36;;;;;;;7.35;2.20;;;20.40;99.90;;;;;;5042452;28;20107;-83
2023/09/20 12:36:04;;;;;;;5.28;2.13;;;20.50;99.90;;;;;;5053020;28;20101;-85
2023/09/20 12:38:30;;;;;;;7.82;2.40;;;20.60;99.90;;;;;;5054179;28;20482;-86
2023/09/20 12:40:58;;;;;;;9.10;2.55;;;20.60;99.90;;;;;;5052049;28;20068;-84
2023/09/20 12:43:25;;;;;;;7.15;2.40;;;20.70;99.90;;;;;;5053240;28;20048;-83
2023/09/20 12:45:54;;;;;;;5.88;2.45;;;20.70;99.90;;;;;;5053234;28;20049;-84
2023/09/20 12:48:21;;;;;;;7.82;2.63;;;20.80;99.90;;;;;;5054853;28;20045;-84
2023/09/20 12:50:47;;;;;;;6.00;2.70;;;20.90;99.90;;;;;;5053988;28;20091;-83
2023/09/20 12:53:12;;;;;;;6.35;2.53;;;20.90;99.90;;;;;;5050753;28;20516;-85
2023/09/20 12:55:39;;;;;;;6.82;2.70;;;20.90;99.90;;;;;;5035573;28;20049;-85
2023/09/20 12:58:06;;;;;;;7.75;2.75;;;20.90;99.90;;;;;;5034124;28;20583;-85
2023/09/20 13:00:36;;;;;;;6.93;2.40;;;20.90;99.90;;;;;;5034875;28;20096;-84
2023/09/20 13:03:07;;;;;;;9.07;2.70;;;21.10;99.90;;;;;;5037504;28;20501;-84
2023/09/20 13:05:33;;;;;;;9.90;2.47;;;21.30;99.90;;;;;;5033510;28;20049;-84
2023/09/20 13:07:59;;;;;;;5.22;2.78;;;21.40;99.90;;;;;;5051949;28;20049;-84
2023/09/20 13:10:27;;;;;;;5.93;2.70;;;21.50;99.90;;;;;;5031449;28;20057;-85
2023/09/20 13:12:53;;;;;;;7.95;2.75;;;21.40;99.90;;;;;;5035025;28;20054;-84
2023/09/20 13:15:20;;;;;;;7.53;2.55;;;21.30;99.90;;;;;;5045029;28;20076;-84
2023/09/20 13:17:48;;;;;;;6.55;2.75;;;21.30;99.90;;;;;;5047666;28;20045;-83
2023/09/20 13:20:18;;;;;;;6.97;2.17;;;21.20;99.90;;;;;;5031469;28;20084;-82
2023/09/20 13:22:47;;;;;;;6.60;2.67;;;21.20;99.90;;;;;;5046948;28;20120;-84
2023/09/20 13:25:19;;;;;;;7.50;2.70;;;21.10;99.90;;;;;;5050082;28;20657;-83
2023/09/20 13:27:46;;;;;;;5.90;2.88;;;21.10;99.90;;;;;;5033802;28;20436;-85